createdAt,value
2023-01-31T00:02:45.954Z,2.70
2023-01-31T00:06:51.687Z,2.60
2023-01-31T00:10:55.655Z,2.50
2023-01-31T00:15:01.220Z,2.80
2023-01-31T00:19:05.050Z,2.60
2023-01-31T00:23:08.507Z,2.20
2023-01-31T00:27:12.252Z,2.60
2023-01-31T00:31:18.422Z,2.70
2023-01-31T00:35:22.394Z,2.60
2023-01-31T00:39:26.135Z,2.50
2023-01-31T00:43:29.762Z,2.60
2023-01-31T00:47:35.181Z,2.50
2023-01-31T00:51:39.150Z,2.00
2023-01-31T00:55:42.693Z,2.50
2023-01-31T00:59:46.264Z,2.50
2023-01-31T01:03:52.111Z,2.30
2023-01-31T01:07:55.660Z,2.00
2023-01-31T01:11:59.217Z,1.50
2023-01-31T01:16:07.492Z,2.10
2023-01-31T01:20:13.737Z,2.10
2023-01-31T01:24:20.125Z,1.80
2023-01-31T01:28:23.629Z,2.00
2023-01-31T01:32:27.579Z,2.30
2023-01-31T01:36:35.008Z,2.40
2023-01-31T01:40:39.418Z,2.40
2023-01-31T01:44:52.492Z,2.40
2023-01-31T01:49:00.207Z,2.30
2023-01-31T01:53:11.144Z,1.80
2023-01-31T01:57:19.825Z,2.10
2023-01-31T02:01:24.233Z,1.90
2023-01-31T02:05:28.569Z,1.70
2023-01-31T02:09:40.539Z,1.30
2023-01-31T02:13:44.844Z,1.60
2023-01-31T02:17:48.525Z,1.40
2023-01-31T02:22:18.455Z,1.40
2023-01-31T02:26:51.616Z,1.40
2023-01-31T02:31:32.794Z,1.20
2023-01-31T02:35:50.986Z,1.30
2023-01-31T02:40:09.367Z,1.20
2023-01-31T02:44:41.736Z,1.00
2023-01-31T02:48:53.783Z,1.20
2023-01-31T02:53:03.361Z,1.20
2023-01-31T02:57:06.760Z,1.40
2023-01-31T03:01:15.376Z,1.50
2023-01-31T03:05:21.453Z,1.80
2023-01-31T03:09:36.850Z,1.80
2023-01-31T03:13:58.404Z,1.70
2023-01-31T03:18:07.175Z,1.70
2023-01-31T03:22:16.740Z,1.30
2023-01-31T03:26:22.782Z,1.10
2023-01-31T03:30:31.895Z,0.70
2023-01-31T03:34:35.450Z,0.80
2023-01-31T03:38:48.628Z,1.40
2023-01-31T03:42:58.852Z,1.40
2023-01-31T03:47:07.989Z,1.40
2023-01-31T03:51:16.213Z,1.40
2023-01-31T03:55:23.066Z,1.60
2023-01-31T03:59:32.580Z,1.50
2023-01-31T04:03:40.752Z,1.10
2023-01-31T04:07:44.438Z,1.20
2023-01-31T04:11:50.206Z,1.30
2023-01-31T04:15:54.998Z,0.90
2023-01-31T04:19:58.313Z,0.70
2023-01-31T04:24:01.825Z,0.50
2023-01-31T04:28:05.371Z,0.30
2023-01-31T04:32:10.637Z,0.30
2023-01-31T04:36:13.948Z,0.30
2023-01-31T04:40:18.927Z,0.60
2023-01-31T04:44:22.214Z,0.70
2023-01-31T04:48:28.982Z,0.70
2023-01-31T04:52:32.948Z,0.80
2023-01-31T04:56:36.542Z,0.70
2023-01-31T05:00:39.934Z,0.40
2023-01-31T05:04:44.670Z,0.40
2023-01-31T05:08:48.629Z,0.10
2023-01-31T05:12:52.690Z,0.00
2023-01-31T05:16:55.971Z,-0.30
2023-01-31T05:21:00.789Z,-0.20
2023-01-31T05:25:05.078Z,-0.30
2023-01-31T05:29:08.691Z,-0.40
2023-01-31T05:33:11.965Z,-0.20
2023-01-31T05:37:16.672Z,0.10
2023-01-31T05:41:20.582Z,0.20
2023-01-31T05:45:24.449Z,0.20
2023-01-31T05:49:33.711Z,0.20
2023-01-31T05:53:38.532Z,0.30
2023-01-31T05:57:42.016Z,-0.10
2023-01-31T06:01:45.657Z,-0.20
2023-01-31T06:05:49.089Z,-0.10
2023-01-31T06:09:53.854Z,-0.40
2023-01-31T06:13:59.502Z,-0.30
2023-01-31T06:18:02.813Z,-0.30
2023-01-31T06:22:06.763Z,-0.40
2023-01-31T06:26:11.811Z,-0.70
2023-01-31T06:30:15.736Z,-0.90
2023-01-31T06:34:19.196Z,-0.90
2023-01-31T06:38:22.489Z,-0.80
2023-01-31T06:42:27.215Z,-0.40
2023-01-31T06:46:30.652Z,-0.60
2023-01-31T06:50:33.982Z,-0.50
2023-01-31T06:54:37.329Z,-0.60
2023-01-31T06:58:42.090Z,-0.60
2023-01-31T07:02:45.376Z,-0.40
2023-01-31T07:06:49.111Z,-0.30
2023-01-31T07:10:52.637Z,-0.50
2023-01-31T07:14:57.733Z,-0.40
2023-01-31T07:19:01.014Z,-0.60
2023-01-31T07:23:04.407Z,-0.40
2023-01-31T07:27:07.702Z,-0.30
2023-01-31T07:31:14.837Z,-0.10
2023-01-31T07:35:18.980Z,-0.20
2023-01-31T07:39:22.592Z,-0.10
2023-01-31T07:43:25.871Z,0.10
2023-01-31T07:47:30.929Z,0.20
2023-01-31T07:51:36.050Z,0.30
2023-01-31T07:55:39.494Z,0.50
2023-01-31T07:59:42.754Z,0.80
2023-01-31T08:03:46.736Z,0.80
2023-01-31T08:08:10.233Z,1.10
2023-01-31T08:12:13.545Z,1.70
2023-01-31T08:16:17.457Z,2.10
2023-01-31T08:20:22.131Z,2.40
2023-01-31T08:24:25.593Z,2.60
2023-01-31T08:28:29.257Z,2.80
2023-01-31T08:32:32.910Z,3.00
2023-01-31T08:36:37.756Z,3.30
2023-01-31T08:40:41.231Z,3.50
2023-01-31T08:44:44.932Z,3.90
2023-01-31T08:48:48.389Z,4.20
2023-01-31T08:52:56.318Z,4.30
2023-01-31T08:56:59.957Z,4.50
2023-01-31T09:01:03.928Z,4.80
2023-01-31T09:05:08.505Z,5.00
2023-01-31T09:09:13.224Z,5.20
2023-01-31T09:13:16.504Z,6.10
2023-01-31T09:17:20.192Z,6.40
2023-01-31T09:21:24.489Z,7.00
2023-01-31T09:25:43.437Z,7.90
2023-01-31T09:29:50.063Z,7.60
2023-01-31T09:33:54.811Z,6.70
2023-01-31T09:37:59.546Z,6.70
2023-01-31T09:42:18.356Z,6.50
2023-01-31T09:46:26.757Z,6.90
2023-01-31T09:50:36.676Z,7.30
2023-01-31T09:54:42.071Z,7.70
2023-01-31T09:58:57.053Z,8.00
2023-01-31T10:03:35.349Z,8.40
2023-01-31T10:07:46.921Z,10.20
2023-01-31T10:11:55.912Z,10.60
2023-01-31T10:16:07.500Z,10.30
2023-01-31T10:20:21.375Z,11.10
2023-01-31T10:24:30.818Z,12.20
2023-01-31T10:28:40.156Z,11.60
2023-01-31T10:32:48.831Z,11.90
2023-01-31T10:37:01.569Z,12.20
2023-01-31T10:41:16.315Z,12.50
2023-01-31T10:45:21.932Z,12.50
2023-01-31T10:49:28.311Z,14.00
2023-01-31T10:53:44.963Z,13.10
2023-01-31T10:57:49.011Z,13.00
2023-01-31T11:01:52.941Z,14.30
2023-01-31T11:05:59.123Z,13.30
2023-01-31T11:10:23.576Z,13.10
2023-01-31T11:14:27.438Z,12.70
2023-01-31T11:18:33.993Z,12.10
2023-01-31T11:22:40.173Z,13.60
2023-01-31T11:26:56.088Z,14.00
2023-01-31T11:31:01.170Z,15.70
2023-01-31T11:35:06.530Z,17.00
2023-01-31T11:39:28.060Z,16.30
2023-01-31T11:43:32.472Z,16.30
2023-01-31T11:47:43.855Z,16.30
2023-01-31T11:51:48.280Z,16.80
2023-01-31T11:55:56.248Z,17.90
2023-01-31T12:00:02.231Z,17.60
2023-01-31T12:04:06.871Z,16.80
2023-01-31T12:08:33.018Z,17.40
2023-01-31T12:12:37.764Z,17.30
2023-01-31T12:16:49.348Z,17.80
2023-01-31T12:21:00.412Z,16.20
2023-01-31T12:25:15.960Z,13.70
2023-01-31T12:29:51.196Z,11.40
2023-01-31T12:34:08.595Z,12.20
2023-01-31T12:38:26.351Z,13.50
2023-01-31T12:42:58.647Z,15.80
2023-01-31T12:47:29.380Z,17.70
2023-01-31T12:51:44.842Z,16.40
2023-01-31T12:55:59.754Z,18.00
2023-01-31T13:00:21.077Z,16.80
2023-01-31T13:04:38.188Z,19.60
2023-01-31T13:08:50.851Z,18.60
2023-01-31T13:13:01.480Z,19.30
2023-01-31T13:17:08.647Z,19.00
2023-01-31T13:21:18.088Z,17.40
2023-01-31T13:25:25.778Z,19.40
2023-01-31T13:29:34.675Z,17.20
2023-01-31T13:33:41.399Z,17.80
2023-01-31T13:37:49.754Z,16.40
2023-01-31T13:41:53.368Z,12.80
2023-01-31T13:46:02.207Z,10.40
2023-01-31T13:50:13.778Z,8.80
2023-01-31T13:54:23.904Z,8.10
2023-01-31T13:58:31.993Z,7.80
2023-01-31T14:02:38.213Z,7.70
2023-01-31T14:07:14.908Z,7.70
2023-01-31T14:11:44.380Z,7.70
2023-01-31T14:15:50.822Z,7.90
2023-01-31T14:20:07.119Z,7.90
2023-01-31T14:24:21.653Z,7.80
2023-01-31T14:28:27.092Z,7.60
2023-01-31T14:32:34.690Z,7.60
2023-01-31T14:36:52.772Z,7.50
2023-01-31T14:41:03.445Z,7.50
2023-01-31T14:45:24.082Z,7.40
2023-01-31T14:49:58.837Z,7.40
2023-01-31T14:54:28.399Z,7.50
2023-01-31T14:58:34.382Z,7.20
2023-01-31T15:02:54.381Z,7.20
2023-01-31T15:06:58.729Z,7.00
2023-01-31T15:11:03.430Z,6.70
2023-01-31T15:15:21.600Z,6.30
2023-01-31T15:19:29.956Z,6.00
2023-01-31T15:23:36.294Z,5.60
2023-01-31T15:27:43.882Z,5.30
2023-01-31T15:31:50.134Z,4.80
2023-01-31T15:36:00.535Z,4.30
2023-01-31T15:40:08.380Z,4.10
2023-01-31T15:44:19.277Z,3.70
2023-01-31T15:48:23.983Z,3.50
2023-01-31T15:52:36.599Z,3.30
2023-01-31T15:56:42.997Z,3.10
2023-01-31T16:00:51.808Z,2.90
2023-01-31T16:04:55.627Z,2.60
2023-01-31T16:09:02.587Z,2.50
2023-01-31T16:13:06.194Z,2.40
2023-01-31T16:17:11.744Z,2.10
2023-01-31T16:21:18.022Z,2.00
2023-01-31T16:25:23.685Z,1.90
2023-01-31T16:29:40.045Z,1.70
2023-01-31T16:33:50.282Z,1.40
2023-01-31T16:38:03.751Z,1.30
2023-01-31T16:42:15.593Z,1.00
2023-01-31T16:46:22.805Z,0.90
2023-01-31T16:50:42.863Z,0.90
2023-01-31T17:04:09.096Z,0.60
2023-01-31T17:08:18.867Z,0.50
2023-01-31T17:12:26.803Z,0.40
2023-01-31T17:16:32.190Z,0.50
2023-01-31T17:20:36.726Z,0.40
2023-01-31T17:24:45.284Z,0.00
2023-01-31T17:29:01.445Z,-0.10
2023-01-31T17:33:06.958Z,-0.10
2023-01-31T17:37:16.101Z,-0.10
2023-01-31T17:41:25.207Z,-0.20
2023-01-31T17:45:30.225Z,-0.50
2023-01-31T17:49:35.908Z,-0.20
2023-01-31T17:53:49.457Z,-0.40
2023-01-31T17:57:56.470Z,-0.70
2023-01-31T18:02:01.157Z,-0.70
2023-01-31T18:06:09.491Z,-0.70
2023-01-31T18:10:23.864Z,-0.70
2023-01-31T18:14:32.868Z,-0.80
2023-01-31T18:18:40.880Z,-0.70
2023-01-31T18:22:49.380Z,-0.70
2023-01-31T18:26:54.146Z,-0.80
2023-01-31T18:31:05.634Z,-0.90
2023-01-31T18:35:11.095Z,-1.00
2023-01-31T18:39:16.278Z,-0.80
2023-01-31T18:43:21.700Z,-0.50
2023-01-31T18:47:28.760Z,-0.50
2023-01-31T18:51:34.569Z,-0.60
2023-01-31T18:55:39.542Z,-0.50
2023-01-31T18:59:44.003Z,-0.60
2023-01-31T19:04:00.610Z,-0.80
2023-01-31T19:08:05.061Z,-0.90
2023-01-31T19:12:09.667Z,-0.90
2023-01-31T19:16:16.903Z,-1.10
2023-01-31T19:20:24.196Z,-1.20
2023-01-31T19:24:29.331Z,-1.30
2023-01-31T19:28:38.586Z,-1.50
2023-01-31T19:32:44.154Z,-1.30
2023-01-31T19:36:53.192Z,-1.40
2023-01-31T19:41:07.715Z,-1.50
2023-01-31T19:45:21.896Z,-1.70
2023-01-31T19:49:28.794Z,-1.60
2023-01-31T19:53:36.515Z,-1.30
2023-01-31T19:57:42.134Z,-1.70
2023-01-31T20:01:50.895Z,-1.80
2023-01-31T20:05:56.077Z,-1.60
2023-01-31T20:10:06.547Z,-1.80
2023-01-31T20:14:15.115Z,-1.80
2023-01-31T20:18:21.087Z,-1.70
2023-01-31T20:22:26.814Z,-1.80
2023-01-31T20:26:36.073Z,-1.80
2023-01-31T20:30:44.423Z,-1.90
2023-01-31T20:34:49.229Z,-1.90
2023-01-31T20:38:54.742Z,-2.00
2023-01-31T20:43:01.623Z,-2.10
2023-01-31T20:47:06.180Z,-2.10
2023-01-31T20:51:12.751Z,-2.00
2023-01-31T20:55:17.154Z,-1.90
2023-01-31T20:59:22.609Z,-2.00
2023-01-31T21:03:27.876Z,-2.10
2023-01-31T21:07:33.025Z,-2.30
2023-01-31T21:11:38.248Z,-2.20
2023-01-31T21:15:50.332Z,-2.20
2023-01-31T21:19:54.203Z,-2.20
2023-01-31T21:23:58.986Z,-2.10
2023-01-31T21:28:03.710Z,-2.10
2023-01-31T21:32:09.469Z,-2.00
2023-01-31T21:36:16.898Z,-2.20
2023-01-31T21:40:21.828Z,-2.40
2023-01-31T21:44:25.851Z,-2.60
2023-01-31T21:48:31.014Z,-2.20
2023-01-31T21:52:34.621Z,-2.30
2023-01-31T21:56:38.464Z,-2.50
2023-01-31T22:00:44.080Z,-2.50
2023-01-31T22:04:49.390Z,-2.40
2023-01-31T22:08:53.629Z,-2.40
2023-01-31T22:12:57.167Z,-2.50
2023-01-31T22:17:00.944Z,-2.40
2023-01-31T22:21:08.882Z,-2.40
2023-01-31T22:25:13.839Z,-2.60
2023-01-31T22:29:17.719Z,-2.50
2023-01-31T22:33:21.413Z,-2.60
2023-01-31T22:37:26.572Z,-2.70
2023-01-31T22:41:30.374Z,-2.60
2023-01-31T22:45:34.173Z,-2.60
2023-01-31T22:49:37.707Z,-2.90
2023-01-31T22:53:43.451Z,-3.00
2023-01-31T22:57:48.096Z,-3.00
2023-01-31T23:01:52.927Z,-2.60
2023-01-31T23:05:56.559Z,-2.70
2023-01-31T23:10:01.594Z,-2.70
2023-01-31T23:14:05.431Z,-2.70
2023-01-31T23:18:09.028Z,-2.70
2023-01-31T23:22:15.216Z,-2.60
2023-01-31T23:26:20.164Z,-2.70
2023-01-31T23:30:24.370Z,-2.50
2023-01-31T23:34:28.038Z,-2.50
2023-01-31T23:38:31.765Z,-2.70
2023-01-31T23:42:36.922Z,-2.60
2023-01-31T23:46:40.722Z,-2.80
2023-01-31T23:50:44.628Z,-2.60
2023-01-31T23:54:48.144Z,-2.50
2023-01-31T23:58:53.111Z,-2.60
